aviador You're here:

LFRK Decoded Metar

CAEN in FRANCE
Report Time2017-08-21 23:30:00
UTC Time2017-08-21 23:56:35
Flight Rules vfr VFR
Wind070° at 01 kt
W.Decomp.*RWY 05: 0.9 kt HW 0.4 kt RCW
RWY 13: 0.5 kt HW 0.9 kt LCW
W.Rank070° ranks 35
Current wind is below 070° avg. (6.0)
Visibility9999 m
Phenomena:N/A
Clouds:Few 035 Hf
CeilingNone
Temp16°C (ISA +1)
Dew Point16°C (100% RH)
QNH1020 hPa
Density Alt394 ft
Elevation220 ft
Report Wrong Elevation
Raw Report
METAR LFRK 212330Z AUTO 07001KT 9999 FEW035 16/16 Q1020=

Extra information for LFRK:More info

Metar Taf Metar & Taf Last 4 Metars F.Rules Stats Wind Profile Meteogram Temp Stats Airport Information Weather charts Add Link Nearby VenuesMetar ALERT Operation Metar Decoded Social comments